sensor_id;sensor_type;location;lat;lon;timestamp;P1;durP1;ratioP1;P2;durP2;ratioP2
43552;SDS011;29153;42.696;23.218;2024-02-28T00:00:59;13.88;;;5.72;;
43552;SDS011;29153;42.696;23.218;2024-02-28T00:03:26;13.70;;;5.55;;
43552;SDS011;29153;42.696;23.218;2024-02-28T00:05:54;18.17;;;6.87;;
43552;SDS011;29153;42.696;23.218;2024-02-28T00:08:21;13.70;;;5.45;;
43552;SDS011;29153;42.696;23.218;2024-02-28T00:10:49;15.65;;;5.87;;
43552;SDS011;29153;42.696;23.218;2024-02-28T00:13:16;14.55;;;6.05;;
43552;SDS011;29153;42.696;23.218;2024-02-28T00:15:46;16.00;;;6.33;;
43552;SDS011;29153;42.696;23.218;2024-02-28T00:18:13;13.53;;;5.92;;
43552;SDS011;29153;42.696;23.218;2024-02-28T00:20:41;15.08;;;6.40;;
43552;SDS011;29153;42.696;23.218;2024-02-28T00:23:10;14.58;;;6.65;;
43552;SDS011;29153;42.696;23.218;2024-02-28T00:25:37;17.62;;;5.92;;
43552;SDS011;29153;42.696;23.218;2024-02-28T00:28:05;13.48;;;5.92;;
43552;SDS011;29153;42.696;23.218;2024-02-28T00:30:32;13.15;;;5.72;;
43552;SDS011;29153;42.696;23.218;2024-02-28T00:33:00;14.13;;;6.60;;
43552;SDS011;29153;42.696;23.218;2024-02-28T00:35:31;14.05;;;6.03;;
43552;SDS011;29153;42.696;23.218;2024-02-28T00:38:01;18.73;;;6.97;;
43552;SDS011;29153;42.696;23.218;2024-02-28T00:40:28;14.87;;;6.65;;
43552;SDS011;29153;42.696;23.218;2024-02-28T00:42:57;14.78;;;6.25;;
43552;SDS011;29153;42.696;23.218;2024-02-28T00:45:24;14.35;;;6.35;;
43552;SDS011;29153;42.696;23.218;2024-02-28T00:47:52;13.22;;;6.42;;
43552;SDS011;29153;42.696;23.218;2024-02-28T00:50:20;13.70;;;6.17;;
43552;SDS011;29153;42.696;23.218;2024-02-28T00:52:48;18.17;;;7.10;;
43552;SDS011;29153;42.696;23.218;2024-02-28T00:55:15;15.85;;;7.45;;
43552;SDS011;29153;42.696;23.218;2024-02-28T01:00:11;12.43;;;6.45;;
43552;SDS011;29153;42.696;23.218;2024-02-28T01:02:39;14.80;;;6.15;;
43552;SDS011;29153;42.696;23.218;2024-02-28T01:05:10;14.85;;;6.40;;
43552;SDS011;29153;42.696;23.218;2024-02-28T01:07:38;16.25;;;6.80;;
43552;SDS011;29153;42.696;23.218;2024-02-28T01:10:07;16.23;;;7.00;;
43552;SDS011;29153;42.696;23.218;2024-02-28T01:12:34;16.77;;;6.85;;
43552;SDS011;29153;42.696;23.218;2024-02-28T01:15:02;14.28;;;6.10;;
43552;SDS011;29153;42.696;23.218;2024-02-28T01:17:30;15.60;;;7.00;;
43552;SDS011;29153;42.696;23.218;2024-02-28T01:19:58;17.23;;;6.72;;
43552;SDS011;29153;42.696;23.218;2024-02-28T01:22:25;16.32;;;7.35;;
43552;SDS011;29153;42.696;23.218;2024-02-28T01:24:53;13.68;;;6.62;;
43552;SDS011;29153;42.696;23.218;2024-02-28T01:27:20;14.78;;;6.20;;
43552;SDS011;29153;42.696;23.218;2024-02-28T01:29:48;13.80;;;6.92;;
43552;SDS011;29153;42.696;23.218;2024-02-28T01:32:16;16.27;;;6.42;;
43552;SDS011;29153;42.696;23.218;2024-02-28T01:34:43;16.40;;;7.08;;
43552;SDS011;29153;42.696;23.218;2024-02-28T01:37:11;16.57;;;6.87;;
43552;SDS011;29153;42.696;23.218;2024-02-28T01:39:39;19.75;;;7.30;;
43552;SDS011;29153;42.696;23.218;2024-02-28T01:42:07;14.05;;;6.85;;
43552;SDS011;29153;42.696;23.218;2024-02-28T01:44:36;14.93;;;6.80;;
43552;SDS011;29153;42.696;23.218;2024-02-28T01:47:05;16.75;;;6.70;;
43552;SDS011;29153;42.696;23.218;2024-02-28T01:49:33;17.05;;;6.65;;
43552;SDS011;29153;42.696;23.218;2024-02-28T01:52:01;14.65;;;6.85;;
43552;SDS011;29153;42.696;23.218;2024-02-28T01:54:29;14.58;;;6.78;;
43552;SDS011;29153;42.696;23.218;2024-02-28T01:56:58;19.27;;;7.92;;
43552;SDS011;29153;42.696;23.218;2024-02-28T01:59:25;18.17;;;7.42;;
43552;SDS011;29153;42.696;23.218;2024-02-28T02:01:54;17.15;;;7.83;;
43552;SDS011;29153;42.696;23.218;2024-02-28T02:04:22;17.62;;;7.75;;
43552;SDS011;29153;42.696;23.218;2024-02-28T02:06:50;16.05;;;7.12;;
43552;SDS011;29153;42.696;23.218;2024-02-28T02:09:19;13.53;;;7.22;;
43552;SDS011;29153;42.696;23.218;2024-02-28T02:11:47;18.98;;;7.75;;
43552;SDS011;29153;42.696;23.218;2024-02-28T02:14:15;15.98;;;7.28;;
43552;SDS011;29153;42.696;23.218;2024-02-28T02:16:42;16.23;;;6.83;;
43552;SDS011;29153;42.696;23.218;2024-02-28T02:19:10;15.80;;;6.60;;
43552;SDS011;29153;42.696;23.218;2024-02-28T02:21:41;21.68;;;8.03;;
43552;SDS011;29153;42.696;23.218;2024-02-28T02:24:09;18.37;;;7.75;;
43552;SDS011;29153;42.696;23.218;2024-02-28T02:26:36;18.05;;;7.65;;
43552;SDS011;29153;42.696;23.218;2024-02-28T02:29:04;17.23;;;7.33;;
43552;SDS011;29153;42.696;23.218;2024-02-28T02:31:33;18.80;;;7.10;;
43552;SDS011;29153;42.696;23.218;2024-02-28T02:34:01;15.55;;;6.95;;
43552;SDS011;29153;42.696;23.218;2024-02-28T02:36:28;15.58;;;7.45;;
43552;SDS011;29153;42.696;23.218;2024-02-28T02:38:56;17.65;;;7.20;;
43552;SDS011;29153;42.696;23.218;2024-02-28T02:41:24;13.32;;;6.40;;
43552;SDS011;29153;42.696;23.218;2024-02-28T02:43:51;17.32;;;6.87;;
43552;SDS011;29153;42.696;23.218;2024-02-28T02:46:19;15.60;;;6.83;;
43552;SDS011;29153;42.696;23.218;2024-02-28T02:48:46;12.60;;;6.78;;
43552;SDS011;29153;42.696;23.218;2024-02-28T02:51:14;16.23;;;7.08;;
43552;SDS011;29153;42.696;23.218;2024-02-28T02:53:43;14.20;;;6.22;;
43552;SDS011;29153;42.696;23.218;2024-02-28T02:56:11;16.70;;;6.50;;
43552;SDS011;29153;42.696;23.218;2024-02-28T02:58:38;18.07;;;7.08;;
43552;SDS011;29153;42.696;23.218;2024-02-28T03:01:06;13.83;;;6.42;;
43552;SDS011;29153;42.696;23.218;2024-02-28T03:03:34;17.92;;;7.00;;
43552;SDS011;29153;42.696;23.218;2024-02-28T03:08:30;16.75;;;6.87;;
43552;SDS011;29153;42.696;23.218;2024-02-28T03:10:58;13.68;;;6.95;;
43552;SDS011;29153;42.696;23.218;2024-02-28T03:13:26;15.43;;;6.12;;
43552;SDS011;29153;42.696;23.218;2024-02-28T03:15:54;13.53;;;6.28;;
43552;SDS011;29153;42.696;23.218;2024-02-28T03:18:21;17.52;;;7.28;;
43552;SDS011;29153;42.696;23.218;2024-02-28T03:20:49;20.72;;;8.08;;
43552;SDS011;29153;42.696;23.218;2024-02-28T03:23:16;28.67;;;10.43;;
43552;SDS011;29153;42.696;23.218;2024-02-28T03:25:44;24.43;;;9.63;;
43552;SDS011;29153;42.696;23.218;2024-02-28T03:28:11;22.45;;;9.25;;
43552;SDS011;29153;42.696;23.218;2024-02-28T03:30:39;18.27;;;9.65;;
43552;SDS011;29153;42.696;23.218;2024-02-28T03:33:07;18.37;;;9.05;;
43552;SDS011;29153;42.696;23.218;2024-02-28T03:35:35;18.75;;;10.05;;
43552;SDS011;29153;42.696;23.218;2024-02-28T03:38:02;16.85;;;8.18;;
43552;SDS011;29153;42.696;23.218;2024-02-28T03:40:30;19.82;;;8.83;;
43552;SDS011;29153;42.696;23.218;2024-02-28T03:42:57;16.32;;;7.78;;
43552;SDS011;29153;42.696;23.218;2024-02-28T03:45:27;17.75;;;7.75;;
43552;SDS011;29153;42.696;23.218;2024-02-28T03:47:55;16.87;;;8.45;;
43552;SDS011;29153;42.696;23.218;2024-02-28T03:50:22;17.55;;;8.25;;
43552;SDS011;29153;42.696;23.218;2024-02-28T03:52:50;18.05;;;7.75;;
43552;SDS011;29153;42.696;23.218;2024-02-28T03:55:17;17.73;;;8.08;;
43552;SDS011;29153;42.696;23.218;2024-02-28T03:57:48;18.67;;;7.83;;
43552;SDS011;29153;42.696;23.218;2024-02-28T04:00:17;22.42;;;8.90;;
43552;SDS011;29153;42.696;23.218;2024-02-28T04:02:45;16.77;;;7.72;;
43552;SDS011;29153;42.696;23.218;2024-02-28T04:05:12;21.07;;;8.65;;
43552;SDS011;29153;42.696;23.218;2024-02-28T04:07:40;18.85;;;7.15;;
43552;SDS011;29153;42.696;23.218;2024-02-28T04:10:08;20.52;;;7.85;;
43552;SDS011;29153;42.696;23.218;2024-02-28T04:12:37;18.12;;;7.45;;
43552;SDS011;29153;42.696;23.218;2024-02-28T04:15:04;21.50;;;8.70;;
43552;SDS011;29153;42.696;23.218;2024-02-28T04:17:32;17.95;;;8.18;;
43552;SDS011;29153;42.696;23.218;2024-02-28T04:20:00;19.00;;;9.08;;
43552;SDS011;29153;42.696;23.218;2024-02-28T04:22:29;17.52;;;8.15;;
43552;SDS011;29153;42.696;23.218;2024-02-28T04:24:57;20.45;;;8.93;;
43552;SDS011;29153;42.696;23.218;2024-02-28T04:27:25;18.85;;;8.40;;
43552;SDS011;29153;42.696;23.218;2024-02-28T04:29:52;19.12;;;8.25;;
43552;SDS011;29153;42.696;23.218;2024-02-28T04:32:20;21.60;;;8.45;;
43552;SDS011;29153;42.696;23.218;2024-02-28T04:34:47;20.02;;;7.97;;
43552;SDS011;29153;42.696;23.218;2024-02-28T04:37:15;20.85;;;8.63;;
43552;SDS011;29153;42.696;23.218;2024-02-28T04:39:43;23.18;;;9.05;;
43552;SDS011;29153;42.696;23.218;2024-02-28T04:42:10;21.42;;;9.43;;
43552;SDS011;29153;42.696;23.218;2024-02-28T04:44:39;19.42;;;8.38;;
43552;SDS011;29153;42.696;23.218;2024-02-28T04:47:06;19.17;;;8.88;;
43552;SDS011;29153;42.696;23.218;2024-02-28T04:49:39;19.05;;;9.65;;
43552;SDS011;29153;42.696;23.218;2024-02-28T04:52:05;18.67;;;8.98;;
43552;SDS011;29153;42.696;23.218;2024-02-28T04:54:33;20.00;;;8.23;;
43552;SDS011;29153;42.696;23.218;2024-02-28T04:57:00;18.85;;;8.10;;
43552;SDS011;29153;42.696;23.218;2024-02-28T04:59:28;16.93;;;8.28;;
43552;SDS011;29153;42.696;23.218;2024-02-28T05:01:57;20.90;;;8.38;;
43552;SDS011;29153;42.696;23.218;2024-02-28T05:04:25;21.70;;;9.18;;
43552;SDS011;29153;42.696;23.218;2024-02-28T05:06:53;24.05;;;9.13;;
43552;SDS011;29153;42.696;23.218;2024-02-28T05:09:20;20.62;;;9.28;;
43552;SDS011;29153;42.696;23.218;2024-02-28T05:11:48;18.95;;;8.13;;
43552;SDS011;29153;42.696;23.218;2024-02-28T05:14:15;19.90;;;9.15;;
43552;SDS011;29153;42.696;23.218;2024-02-28T05:16:43;30.65;;;9.58;;
43552;SDS011;29153;42.696;23.218;2024-02-28T05:19:10;22.80;;;8.88;;
43552;SDS011;29153;42.696;23.218;2024-02-28T05:21:42;18.23;;;8.65;;
43552;SDS011;29153;42.696;23.218;2024-02-28T05:24:09;20.52;;;8.18;;
43552;SDS011;29153;42.696;23.218;2024-02-28T05:26:37;20.95;;;8.65;;
43552;SDS011;29153;42.696;23.218;2024-02-28T05:29:05;22.58;;;8.68;;
43552;SDS011;29153;42.696;23.218;2024-02-28T05:31:33;19.42;;;8.95;;
43552;SDS011;29153;42.696;23.218;2024-02-28T05:34:03;20.77;;;8.68;;
43552;SDS011;29153;42.696;23.218;2024-02-28T05:36:31;21.87;;;7.83;;
43552;SDS011;29153;42.696;23.218;2024-02-28T05:38:59;18.77;;;8.30;;
43552;SDS011;29153;42.696;23.218;2024-02-28T05:41:27;18.92;;;8.75;;
43552;SDS011;29153;42.696;23.218;2024-02-28T05:43:55;20.70;;;8.78;;
43552;SDS011;29153;42.696;23.218;2024-02-28T05:46:22;18.60;;;8.10;;
43552;SDS011;29153;42.696;23.218;2024-02-28T05:48:50;19.82;;;8.70;;
43552;SDS011;29153;42.696;23.218;2024-02-28T05:51:18;28.40;;;8.80;;
43552;SDS011;29153;42.696;23.218;2024-02-28T05:53:45;22.65;;;9.55;;
43552;SDS011;29153;42.696;23.218;2024-02-28T05:56:13;22.22;;;8.53;;
43552;SDS011;29153;42.696;23.218;2024-02-28T05:58:45;20.77;;;8.23;;
43552;SDS011;29153;42.696;23.218;2024-02-28T06:01:17;29.23;;;8.48;;
43552;SDS011;29153;42.696;23.218;2024-02-28T06:03:47;26.48;;;8.33;;
43552;SDS011;29153;42.696;23.218;2024-02-28T06:06:16;23.70;;;9.05;;
43552;SDS011;29153;42.696;23.218;2024-02-28T06:08:44;25.32;;;9.13;;
43552;SDS011;29153;42.696;23.218;2024-02-28T06:11:11;23.70;;;9.13;;
43552;SDS011;29153;42.696;23.218;2024-02-28T06:13:42;33.35;;;9.58;;
43552;SDS011;29153;42.696;23.218;2024-02-28T06:16:15;26.50;;;9.85;;
43552;SDS011;29153;42.696;23.218;2024-02-28T06:18:44;25.57;;;10.43;;
43552;SDS011;29153;42.696;23.218;2024-02-28T06:21:13;24.87;;;9.55;;
43552;SDS011;29153;42.696;23.218;2024-02-28T06:26:07;21.40;;;8.93;;
43552;SDS011;29153;42.696;23.218;2024-02-28T06:28:36;24.75;;;10.08;;
43552;SDS011;29153;42.696;23.218;2024-02-28T06:31:04;22.35;;;10.30;;
43552;SDS011;29153;42.696;23.218;2024-02-28T06:33:33;25.02;;;11.05;;
43552;SDS011;29153;42.696;23.218;2024-02-28T06:36:01;26.75;;;11.90;;
43552;SDS011;29153;42.696;23.218;2024-02-28T06:38:28;30.75;;;13.22;;
43552;SDS011;29153;42.696;23.218;2024-02-28T06:40:56;29.72;;;13.32;;
43552;SDS011;29153;42.696;23.218;2024-02-28T06:43:24;37.42;;;15.40;;
43552;SDS011;29153;42.696;23.218;2024-02-28T06:45:51;39.55;;;15.38;;
43552;SDS011;29153;42.696;23.218;2024-02-28T06:48:19;36.75;;;15.58;;
43552;SDS011;29153;42.696;23.218;2024-02-28T06:50:46;34.30;;;15.10;;
43552;SDS011;29153;42.696;23.218;2024-02-28T06:53:14;35.10;;;14.78;;
43552;SDS011;29153;42.696;23.218;2024-02-28T06:55:42;36.03;;;16.02;;
43552;SDS011;29153;42.696;23.218;2024-02-28T06:58:11;32.67;;;15.60;;
43552;SDS011;29153;42.696;23.218;2024-02-28T07:00:38;37.40;;;16.67;;
43552;SDS011;29153;42.696;23.218;2024-02-28T07:03:06;37.53;;;16.65;;
43552;SDS011;29153;42.696;23.218;2024-02-28T07:05:34;39.30;;;17.48;;
43552;SDS011;29153;42.696;23.218;2024-02-28T07:08:01;38.02;;;16.65;;
43552;SDS011;29153;42.696;23.218;2024-02-28T07:10:29;34.70;;;15.78;;
43552;SDS011;29153;42.696;23.218;2024-02-28T07:12:57;36.65;;;16.55;;
43552;SDS011;29153;42.696;23.218;2024-02-28T07:15:24;32.55;;;15.50;;
43552;SDS011;29153;42.696;23.218;2024-02-28T07:17:52;34.78;;;15.80;;
43552;SDS011;29153;42.696;23.218;2024-02-28T07:20:20;32.35;;;15.55;;
43552;SDS011;29153;42.696;23.218;2024-02-28T07:22:47;32.98;;;14.50;;
43552;SDS011;29153;42.696;23.218;2024-02-28T07:25:15;31.50;;;14.83;;
43552;SDS011;29153;42.696;23.218;2024-02-28T07:27:42;37.65;;;15.28;;
43552;SDS011;29153;42.696;23.218;2024-02-28T07:30:10;35.25;;;15.70;;
43552;SDS011;29153;42.696;23.218;2024-02-28T07:32:38;34.83;;;15.58;;
43552;SDS011;29153;42.696;23.218;2024-02-28T07:35:06;34.38;;;15.80;;
43552;SDS011;29153;42.696;23.218;2024-02-28T07:37:34;36.65;;;16.60;;
43552;SDS011;29153;42.696;23.218;2024-02-28T07:40:01;37.33;;;16.35;;
43552;SDS011;29153;42.696;23.218;2024-02-28T07:42:30;32.25;;;16.35;;
43552;SDS011;29153;42.696;23.218;2024-02-28T07:44:57;28.32;;;14.65;;
43552;SDS011;29153;42.696;23.218;2024-02-28T07:47:25;30.02;;;15.75;;
43552;SDS011;29153;42.696;23.218;2024-02-28T07:49:52;33.18;;;15.45;;
43552;SDS011;29153;42.696;23.218;2024-02-28T07:52:20;28.57;;;14.53;;
43552;SDS011;29153;42.696;23.218;2024-02-28T07:54:48;28.38;;;14.55;;
43552;SDS011;29153;42.696;23.218;2024-02-28T07:57:15;32.08;;;15.60;;
43552;SDS011;29153;42.696;23.218;2024-02-28T07:59:44;29.85;;;14.78;;
43552;SDS011;29153;42.696;23.218;2024-02-28T08:02:12;28.23;;;15.10;;
43552;SDS011;29153;42.696;23.218;2024-02-28T08:04:39;29.65;;;15.13;;
43552;SDS011;29153;42.696;23.218;2024-02-28T08:07:07;27.98;;;15.30;;
43552;SDS011;29153;42.696;23.218;2024-02-28T08:09:34;32.67;;;16.07;;
43552;SDS011;29153;42.696;23.218;2024-02-28T08:12:02;32.08;;;15.63;;
43552;SDS011;29153;42.696;23.218;2024-02-28T08:14:30;32.03;;;15.98;;
43552;SDS011;29153;42.696;23.218;2024-02-28T08:16:57;34.70;;;16.20;;
43552;SDS011;29153;42.696;23.218;2024-02-28T08:19:25;33.98;;;17.37;;
43552;SDS011;29153;42.696;23.218;2024-02-28T08:21:52;34.13;;;17.32;;
43552;SDS011;29153;42.696;23.218;2024-02-28T08:24:20;30.43;;;15.48;;
43552;SDS011;29153;42.696;23.218;2024-02-28T08:26:48;33.00;;;16.85;;
43552;SDS011;29153;42.696;23.218;2024-02-28T08:29:15;36.38;;;17.17;;
43552;SDS011;29153;42.696;23.218;2024-02-28T08:31:43;32.48;;;17.40;;
43552;SDS011;29153;42.696;23.218;2024-02-28T08:34:11;34.53;;;17.65;;
43552;SDS011;29153;42.696;23.218;2024-02-28T08:36:38;36.25;;;17.73;;
43552;SDS011;29153;42.696;23.218;2024-02-28T08:39:06;37.90;;;16.95;;
43552;SDS011;29153;42.696;23.218;2024-02-28T08:41:34;38.15;;;18.42;;
43552;SDS011;29153;42.696;23.218;2024-02-28T08:44:02;36.40;;;17.60;;
43552;SDS011;29153;42.696;23.218;2024-02-28T08:46:30;39.95;;;19.17;;
43552;SDS011;29153;42.696;23.218;2024-02-28T08:48:57;35.83;;;18.50;;
43552;SDS011;29153;42.696;23.218;2024-02-28T08:51:25;35.88;;;18.62;;
43552;SDS011;29153;42.696;23.218;2024-02-28T08:53:53;37.23;;;18.00;;
43552;SDS011;29153;42.696;23.218;2024-02-28T08:58:48;36.30;;;17.00;;
43552;SDS011;29153;42.696;23.218;2024-02-28T09:01:16;32.93;;;17.42;;
43552;SDS011;29153;42.696;23.218;2024-02-28T09:03:43;37.90;;;18.35;;
43552;SDS011;29153;42.696;23.218;2024-02-28T09:06:11;34.83;;;17.17;;
43552;SDS011;29153;42.696;23.218;2024-02-28T09:08:38;38.83;;;17.77;;
43552;SDS011;29153;42.696;23.218;2024-02-28T09:11:06;39.40;;;18.77;;
43552;SDS011;29153;42.696;23.218;2024-02-28T09:13:33;38.15;;;18.07;;
43552;SDS011;29153;42.696;23.218;2024-02-28T09:16:04;43.55;;;18.90;;
43552;SDS011;29153;42.696;23.218;2024-02-28T09:30:39;40.43;;;20.65;;
43552;SDS011;29153;42.696;23.218;2024-02-28T09:33:06;35.68;;;18.00;;
43552;SDS011;29153;42.696;23.218;2024-02-28T09:35:35;38.80;;;19.12;;
43552;SDS011;29153;42.696;23.218;2024-02-28T09:38:02;34.33;;;18.60;;
43552;SDS011;29153;42.696;23.218;2024-02-28T09:40:30;46.13;;;19.35;;
43552;SDS011;29153;42.696;23.218;2024-02-28T09:43:00;35.28;;;17.15;;
43552;SDS011;29153;42.696;23.218;2024-02-28T09:45:30;37.80;;;17.27;;
43552;SDS011;29153;42.696;23.218;2024-02-28T09:47:58;37.45;;;16.62;;
43552;SDS011;29153;42.696;23.218;2024-02-28T09:50:26;36.60;;;15.90;;
43552;SDS011;29153;42.696;23.218;2024-02-28T09:52:54;33.78;;;16.45;;
43552;SDS011;29153;42.696;23.218;2024-02-28T09:55:22;30.95;;;15.35;;
43552;SDS011;29153;42.696;23.218;2024-02-28T09:57:50;34.80;;;18.10;;
43552;SDS011;29153;42.696;23.218;2024-02-28T10:00:19;30.52;;;15.78;;
43552;SDS011;29153;42.696;23.218;2024-02-28T10:02:47;33.18;;;16.17;;
43552;SDS011;29153;42.696;23.218;2024-02-28T10:05:17;34.03;;;15.30;;
43552;SDS011;29153;42.696;23.218;2024-02-28T10:07:49;33.50;;;16.12;;
43552;SDS011;29153;42.696;23.218;2024-02-28T10:10:17;33.78;;;15.60;;
43552;SDS011;29153;42.696;23.218;2024-02-28T10:12:44;30.90;;;14.58;;
43552;SDS011;29153;42.696;23.218;2024-02-28T10:15:12;28.40;;;13.78;;
43552;SDS011;29153;42.696;23.218;2024-02-28T10:17:39;30.08;;;14.10;;
43552;SDS011;29153;42.696;23.218;2024-02-28T10:20:09;26.87;;;13.20;;
43552;SDS011;29153;42.696;23.218;2024-02-28T10:22:37;30.30;;;13.68;;
43552;SDS011;29153;42.696;23.218;2024-02-28T10:25:05;28.50;;;15.68;;
43552;SDS011;29153;42.696;23.218;2024-02-28T10:27:33;31.77;;;14.40;;
43552;SDS011;29153;42.696;23.218;2024-02-28T10:30:02;30.52;;;14.78;;
43552;SDS011;29153;42.696;23.218;2024-02-28T10:32:33;29.55;;;14.50;;
43552;SDS011;29153;42.696;23.218;2024-02-28T10:35:02;33.70;;;15.15;;
43552;SDS011;29153;42.696;23.218;2024-02-28T10:37:32;29.23;;;14.53;;
43552;SDS011;29153;42.696;23.218;2024-02-28T10:40:01;32.20;;;16.02;;
43552;SDS011;29153;42.696;23.218;2024-02-28T10:42:29;25.68;;;12.10;;
43552;SDS011;29153;42.696;23.218;2024-02-28T10:44:57;21.80;;;11.78;;
43552;SDS011;29153;42.696;23.218;2024-02-28T10:49:53;22.93;;;12.28;;
43552;SDS011;29153;42.696;23.218;2024-02-28T10:52:21;23.95;;;12.00;;
43552;SDS011;29153;42.696;23.218;2024-02-28T10:54:53;23.12;;;13.90;;
43552;SDS011;29153;42.696;23.218;2024-02-28T10:57:21;25.97;;;11.88;;
43552;SDS011;29153;42.696;23.218;2024-02-28T10:59:51;22.95;;;11.38;;
43552;SDS011;29153;42.696;23.218;2024-02-28T11:02:20;27.50;;;13.00;;
43552;SDS011;29153;42.696;23.218;2024-02-28T11:04:51;25.90;;;11.18;;
43552;SDS011;29153;42.696;23.218;2024-02-28T11:07:19;23.52;;;10.78;;
43552;SDS011;29153;42.696;23.218;2024-02-28T11:09:47;22.35;;;10.38;;
43552;SDS011;29153;42.696;23.218;2024-02-28T11:12:26;19.55;;;9.23;;
43552;SDS011;29153;42.696;23.218;2024-02-28T11:15:00;21.90;;;11.05;;
43552;SDS011;29153;42.696;23.218;2024-02-28T11:17:26;23.40;;;12.18;;
43552;SDS011;29153;42.696;23.218;2024-02-28T11:19:55;22.40;;;11.65;;
43552;SDS011;29153;42.696;23.218;2024-02-28T11:22:22;26.73;;;11.10;;
43552;SDS011;29153;42.696;23.218;2024-02-28T11:24:53;24.65;;;11.48;;
43552;SDS011;29153;42.696;23.218;2024-02-28T11:27:21;26.27;;;13.08;;
43552;SDS011;29153;42.696;23.218;2024-02-28T11:29:48;23.00;;;10.48;;
43552;SDS011;29153;42.696;23.218;2024-02-28T11:32:16;20.97;;;9.70;;
43552;SDS011;29153;42.696;23.218;2024-02-28T11:34:43;21.00;;;10.82;;
43552;SDS011;29153;42.696;23.218;2024-02-28T11:37:12;23.98;;;10.82;;
43552;SDS011;29153;42.696;23.218;2024-02-28T11:39:39;23.02;;;10.38;;
43552;SDS011;29153;42.696;23.218;2024-02-28T11:42:14;24.80;;;9.50;;
43552;SDS011;29153;42.696;23.218;2024-02-28T11:44:39;19.70;;;10.82;;
43552;SDS011;29153;42.696;23.218;2024-02-28T11:47:08;17.30;;;9.25;;
43552;SDS011;29153;42.696;23.218;2024-02-28T11:49:37;22.07;;;9.10;;
43552;SDS011;29153;42.696;23.218;2024-02-28T11:52:05;17.25;;;9.15;;
43552;SDS011;29153;42.696;23.218;2024-02-28T11:54:33;20.75;;;7.95;;
43552;SDS011;29153;42.696;23.218;2024-02-28T11:57:00;17.70;;;7.58;;
43552;SDS011;29153;42.696;23.218;2024-02-28T11:59:29;13.75;;;8.15;;
43552;SDS011;29153;42.696;23.218;2024-02-28T12:01:57;13.50;;;5.90;;
43552;SDS011;29153;42.696;23.218;2024-02-28T12:04:24;12.30;;;6.75;;
43552;SDS011;29153;42.696;23.218;2024-02-28T12:06:52;17.48;;;6.10;;
43552;SDS011;29153;42.696;23.218;2024-02-28T12:09:19;12.88;;;5.92;;
43552;SDS011;29153;42.696;23.218;2024-02-28T12:11:47;14.83;;;4.70;;
43552;SDS011;29153;42.696;23.218;2024-02-28T12:14:15;10.82;;;5.20;;
43552;SDS011;29153;42.696;23.218;2024-02-28T12:16:43;11.22;;;4.78;;
43552;SDS011;29153;42.696;23.218;2024-02-28T12:19:12;11.00;;;4.45;;
43552;SDS011;29153;42.696;23.218;2024-02-28T12:21:40;10.60;;;3.65;;
43552;SDS011;29153;42.696;23.218;2024-02-28T12:24:09;9.93;;;4.05;;
43552;SDS011;29153;42.696;23.218;2024-02-28T12:26:37;9.25;;;4.00;;
43552;SDS011;29153;42.696;23.218;2024-02-28T12:29:06;9.55;;;4.37;;
43552;SDS011;29153;42.696;23.218;2024-02-28T12:31:36;11.43;;;5.08;;
43552;SDS011;29153;42.696;23.218;2024-02-28T12:34:03;8.80;;;4.55;;
43552;SDS011;29153;42.696;23.218;2024-02-28T12:36:31;10.85;;;4.45;;
43552;SDS011;29153;42.696;23.218;2024-02-28T12:38:59;7.33;;;3.62;;
43552;SDS011;29153;42.696;23.218;2024-02-28T12:41:27;9.03;;;4.03;;
43552;SDS011;29153;42.696;23.218;2024-02-28T12:43:55;14.45;;;5.03;;
43552;SDS011;29153;42.696;23.218;2024-02-28T12:46:23;9.03;;;4.75;;
43552;SDS011;29153;42.696;23.218;2024-02-28T12:48:50;9.63;;;4.50;;
43552;SDS011;29153;42.696;23.218;2024-02-28T12:51:35;12.43;;;3.95;;
43552;SDS011;29153;42.696;23.218;2024-02-28T12:54:03;12.53;;;5.58;;
43552;SDS011;29153;42.696;23.218;2024-02-28T12:56:31;12.40;;;5.30;;
43552;SDS011;29153;42.696;23.218;2024-02-28T12:58:59;14.35;;;6.53;;
43552;SDS011;29153;42.696;23.218;2024-02-28T13:01:26;11.22;;;4.03;;
43552;SDS011;29153;42.696;23.218;2024-02-28T13:03:54;13.18;;;4.90;;
43552;SDS011;29153;42.696;23.218;2024-02-28T13:06:23;11.57;;;4.12;;
43552;SDS011;29153;42.696;23.218;2024-02-28T13:08:50;13.78;;;4.25;;
43552;SDS011;29153;42.696;23.218;2024-02-28T13:11:20;10.00;;;4.55;;
43552;SDS011;29153;42.696;23.218;2024-02-28T13:13:49;11.20;;;3.42;;
43552;SDS011;29153;42.696;23.218;2024-02-28T13:16:18;9.35;;;4.28;;
43552;SDS011;29153;42.696;23.218;2024-02-28T13:18:47;8.28;;;4.50;;
43552;SDS011;29153;42.696;23.218;2024-02-28T13:21:15;7.87;;;4.33;;
43552;SDS011;29153;42.696;23.218;2024-02-28T13:23:42;8.60;;;4.33;;
43552;SDS011;29153;42.696;23.218;2024-02-28T13:26:10;9.10;;;4.53;;
43552;SDS011;29153;42.696;23.218;2024-02-28T13:28:39;12.63;;;4.97;;
43552;SDS011;29153;42.696;23.218;2024-02-28T13:31:07;9.73;;;4.80;;
43552;SDS011;29153;42.696;23.218;2024-02-28T13:33:38;9.93;;;4.75;;
43552;SDS011;29153;42.696;23.218;2024-02-28T13:36:07;12.60;;;4.80;;
43552;SDS011;29153;42.696;23.218;2024-02-28T13:38:35;9.63;;;4.58;;
43552;SDS011;29153;42.696;23.218;2024-02-28T13:41:02;11.03;;;4.85;;
43552;SDS011;29153;42.696;23.218;2024-02-28T13:43:30;10.38;;;4.97;;
43552;SDS011;29153;42.696;23.218;2024-02-28T13:45:58;15.70;;;6.83;;
43552;SDS011;29153;42.696;23.218;2024-02-28T13:48:29;13.15;;;5.35;;
43552;SDS011;29153;42.696;23.218;2024-02-28T13:50:59;16.82;;;6.90;;
43552;SDS011;29153;42.696;23.218;2024-02-28T13:53:27;16.00;;;5.75;;
43552;SDS011;29153;42.696;23.218;2024-02-28T13:55:55;14.60;;;6.37;;
43552;SDS011;29153;42.696;23.218;2024-02-28T13:58:23;13.40;;;5.53;;
43552;SDS011;29153;42.696;23.218;2024-02-28T14:00:50;12.68;;;6.30;;
43552;SDS011;29153;42.696;23.218;2024-02-28T14:03:18;11.83;;;6.10;;
43552;SDS011;29153;42.696;23.218;2024-02-28T14:08:13;11.45;;;5.40;;
43552;SDS011;29153;42.696;23.218;2024-02-28T14:10:40;15.80;;;6.30;;
43552;SDS011;29153;42.696;23.218;2024-02-28T14:13:08;16.37;;;6.83;;
43552;SDS011;29153;42.696;23.218;2024-02-28T14:15:38;13.58;;;6.33;;
43552;SDS011;29153;42.696;23.218;2024-02-28T14:18:06;14.10;;;5.87;;
43552;SDS011;29153;42.696;23.218;2024-02-28T14:20:34;14.87;;;6.05;;
43552;SDS011;29153;42.696;23.218;2024-02-28T14:23:01;11.83;;;5.70;;
43552;SDS011;29153;42.696;23.218;2024-02-28T14:25:29;16.05;;;5.33;;
43552;SDS011;29153;42.696;23.218;2024-02-28T14:27:57;13.30;;;6.00;;
43552;SDS011;29153;42.696;23.218;2024-02-28T14:30:24;14.75;;;6.25;;
43552;SDS011;29153;42.696;23.218;2024-02-28T14:32:52;13.28;;;6.17;;
43552;SDS011;29153;42.696;23.218;2024-02-28T14:35:20;15.53;;;6.28;;
43552;SDS011;29153;42.696;23.218;2024-02-28T14:37:48;12.80;;;5.80;;
43552;SDS011;29153;42.696;23.218;2024-02-28T14:40:17;14.80;;;6.58;;
43552;SDS011;29153;42.696;23.218;2024-02-28T14:42:45;11.75;;;5.58;;
43552;SDS011;29153;42.696;23.218;2024-02-28T14:45:13;12.58;;;5.40;;
43552;SDS011;29153;42.696;23.218;2024-02-28T14:47:41;12.37;;;5.22;;
43552;SDS011;29153;42.696;23.218;2024-02-28T14:50:10;15.63;;;4.60;;